HomeShort term forecast

Short term forecast

Graphical weather forecast for the next 48 hours for Montreal:

Short term forecast

This weather forecast is automatically refreshed every 3 hours.

Hourly Experimental Forecast for the next 48 hours ®

Overall summary: Foggy tomorrow night.

 Date & Hour   Temp   Feel   Baro   Hum   Speed & Bearing   Wind Gust   Precip.%   Precip.   Visibility   Cloud cover   Conditions 
 08/03/2021 - 01:00  -11.8°C  -17.0°C  1029.7 hPa  67%  9.0 km/h   16.1 km/h  0%  --  16.1km  15%  Clear 
 08/03/2021 - 02:00  -12.5°C  -17.4°C  1029.8 hPa  67%  8.1 km/h   13.1 km/h  0%  --  16.1km  9%  Clear 
 08/03/2021 - 03:00  -13.1°C  -17.9°C  1029.9 hPa  66%  7.6 km/h   11.3 km/h  0%  --  16.1km  9%  Clear 
 08/03/2021 - 04:00  -13.8°C  -18.2°C  1030.0 hPa  67%  6.6 km/h   10.0 km/h  0%  --  16.1km  9%  Clear 
 08/03/2021 - 05:00  -14.6°C  -19.0°C  1030.5 hPa  68%  6.4 km/h   9.9 km/h  1%  0.04 mm/h  16.1km  9%  Clear 
 08/03/2021 - 06:00  -15.2°C  -19.6°C  1031.0 hPa  69%  6.3 km/h   10.4 km/h  1%  0.04 mm/h  16.1km  10%  Clear 
 08/03/2021 - 07:00  -14.8°C  -19.2°C  1031.4 hPa  70%  6.3 km/h   11.0 km/h  1%  0.04 mm/h  16.1km  10%  Clear 
 08/03/2021 - 08:00  -13.2°C  -17.4°C  1031.5 hPa  68%  6.5 km/h   12.0 km/h  1%  0.02 mm/h  16.1km  9%  Clear 
 08/03/2021 - 09:00  -10.9°C  -15.1°C  1031.4 hPa  64%  7.2 km/h   12.7 km/h  0%  --  16.1km  31%  Partly Cloudy 
 08/03/2021 - 10:00  -8.7°C  -13.0°C  1031.1 hPa  61%  8.1 km/h   14.1 km/h  0%  --  16.1km  34%  Partly Cloudy 
 08/03/2021 - 11:00  -7.1°C  -11.3°C  1030.8 hPa  58%  8.7 km/h   13.7 km/h  0%  --  16.1km  31%  Clear 
 08/03/2021 - 12:00  -6.0°C  -10.4°C  1030.1 hPa  55%  10.0 km/h   14.8 km/h  4%  0.01 mm/h  16.1km  35%  Partly Cloudy 
 08/03/2021 - 13:00  -5.2°C  -9.8°C  1029.6 hPa  53%  11.0 km/h   15.7 km/h  5%  0.01 mm/h  16.1km  33%  Partly Cloudy 
 08/03/2021 - 14:00  -4.5°C  -8.6°C  1028.8 hPa  60%  9.7 km/h   15.8 km/h  0%  --  16.1km  18%  Clear 
 08/03/2021 - 15:00  -3.8°C  -7.3°C  1027.9 hPa  60%  8.4 km/h   15.2 km/h  0%  --  16.1km  40%  Partly Cloudy 
 08/03/2021 - 16:00  -3.5°C  -6.5°C  1027.1 hPa  60%  7.3 km/h   14.0 km/h  0%  --  16.1km  57%  Partly Cloudy 
 08/03/2021 - 17:00  -3.9°C  -6.9°C  1026.8 hPa  63%  7.1 km/h   10.9 km/h  0%  --  16.1km  72%  Mostly Cloudy 
 08/03/2021 - 18:00  -5.0°C  -8.5°C  1026.6 hPa  68%  7.7 km/h   11.8 km/h  3%  0.02 mm/h  16.1km  80%  Mostly Cloudy 
 08/03/2021 - 19:00  -5.2°C  -9.1°C  1026.0 hPa  74%  8.8 km/h   18.4 km/h  2%  0.05 mm/h  8.4km  90%  Overcast 
 08/03/2021 - 20:00  -5.3°C  -9.0°C  1025.3 hPa  77%  8.2 km/h   16.4 km/h  2%  0.15 mm/h  6.4km  95%  Overcast 
 08/03/2021 - 21:00  -4.9°C  -8.7°C  1024.5 hPa  78%  8.5 km/h   17.0 km/h  2%  0.08 mm/h  5.6km  91%  Overcast 
 08/03/2021 - 22:00  -4.3°C  -7.8°C  1023.7 hPa  78%  8.1 km/h   17.1 km/h  2%  0.11 mm/h  5.3km  95%  Overcast 
 08/03/2021 - 23:00  -3.8°C  -6.8°C  1023.0 hPa  77%  6.8 km/h   13.7 km/h  2%  0.10 mm/h  4.6km  95%  Overcast 
 09/03/2021 - 00:00  -3.4°C  -5.7°C  1022.4 hPa  77%  5.4 km/h   9.4 km/h  2%  0.10 mm/h  2.8km  95%  Foggy 
 09/03/2021 - 01:00  -3.1°C  -5.4°C  1022.1 hPa  77%  5.5 km/h   9.9 km/h  2%  0.12 mm/h  0.9km  96%  Foggy 
 09/03/2021 - 02:00  -2.9°C  -5.2°C  1021.6 hPa  77%  5.9 km/h   12.5 km/h  2%  0.09 mm/h  3.3km  97%  Overcast 
 09/03/2021 - 03:00  -2.8°C  -5.6°C  1021.4 hPa  78%  6.7 km/h   17.7 km/h  2%  0.08 mm/h  7.5km  99%  Overcast 
 09/03/2021 - 04:00  -2.8°C  -6.0°C  1021.4 hPa  78%  8.2 km/h   22.3 km/h  2%  0.07 mm/h  14.7km  100%  Overcast 
 09/03/2021 - 05:00  -2.8°C  -6.7°C  1021.8 hPa  78%  10.0 km/h   24.7 km/h  2%  0.02 mm/h  16.1km  96%  Overcast 
 09/03/2021 - 06:00  -2.8°C  -7.1°C  1022.5 hPa  79%  11.9 km/h   31.4 km/h  2%  0.03 mm/h  13.2km  96%  Overcast 
 09/03/2021 - 07:00  -2.5°C  -7.1°C  1023.4 hPa  77%  13.6 km/h   35.0 km/h  2%  0.02 mm/h  16.1km  96%  Overcast 
 09/03/2021 - 08:00  -1.7°C  -6.4°C  1023.9 hPa  77%  14.7 km/h   35.6 km/h  3%  0.01 mm/h  16.1km  73%  Mostly Cloudy 
 09/03/2021 - 09:00  -0.7°C  -5.2°C  1024.8 hPa  76%  15.2 km/h   34.1 km/h  0%  --  16.1km  46%  Partly Cloudy 
 09/03/2021 - 10:00  0.2°C  -4.1°C  1025.2 hPa  74%  15.2 km/h   32.9 km/h  0%  --  6.6km  31%  Clear 
 09/03/2021 - 11:00  1.1°C  -3.1°C  1025.6 hPa  73%  15.6 km/h   32.3 km/h  0%  --  6.2km  36%  Partly Cloudy 
 09/03/2021 - 12:00  1.8°C  -2.4°C  1026.2 hPa  72%  16.3 km/h   30.9 km/h  0%  --  5.9km  41%  Partly Cloudy 
 09/03/2021 - 13:00  2.8°C  -1.1°C  1026.5 hPa  71%  15.6 km/h   28.1 km/h  0%  --  6.0km  42%  Partly Cloudy 
 09/03/2021 - 14:00  3.4°C  -0.2°C  1026.6 hPa  70%  15.0 km/h   27.3 km/h  0%  --  6.0km  40%  Partly Cloudy 
 09/03/2021 - 15:00  3.9°C  0.5°C  1026.9 hPa  69%  14.1 km/h   25.3 km/h  0%  --  6.1km  37%  Partly Cloudy 
 09/03/2021 - 16:00  3.9°C  0.8°C  1027.3 hPa  70%  13.1 km/h   23.6 km/h  0%  --  5.7km  35%  Partly Cloudy 
 09/03/2021 - 17:00  3.1°C  0.0°C  1028.1 hPa  72%  12.0 km/h   22.0 km/h  0%  --  8.8km  35%  Partly Cloudy 
 09/03/2021 - 18:00  1.2°C  -2.0°C  1029.0 hPa  76%  10.5 km/h   19.8 km/h  0%  --  9.2km  33%  Partly Cloudy 
 09/03/2021 - 19:00  0.1°C  -3.5°C  1030.0 hPa  77%  10.9 km/h   22.6 km/h  0%  --  16.1km  30%  Clear 
 09/03/2021 - 20:00  -0.8°C  -4.2°C  1030.7 hPa  78%  9.8 km/h   19.6 km/h  0%  --  16.1km  20%  Clear 
 09/03/2021 - 21:00  -1.5°C  -4.7°C  1031.0 hPa  77%  8.5 km/h   15.1 km/h  0%  --  16.1km  25%  Clear 
 09/03/2021 - 22:00  -2.2°C  -5.1°C  1031.0 hPa  76%  7.5 km/h   10.1 km/h  0%  --  16.1km  30%  Clear 
 09/03/2021 - 23:00  -2.7°C  -5.6°C  1031.1 hPa  76%  7.2 km/h   10.0 km/h  0%  --  16.1km  33%  Partly Cloudy 
 10/03/2021 - 00:00  -3.1°C  -6.2°C  1031.1 hPa  76%  7.5 km/h   11.5 km/h  0%  --  14.7km  42%  Partly Cloudy 

 

Past weather and reports

Past weatherFind in this section the past weather conditions, weather archive, graphics, reports and statistics.

Current conditions

Current weather condition for MontrealAll you need to know about the current weather conditions for Montreal. Weather data is updated every 10 minutes.

Weather forecast

Current Montreal weatherSince 2004, celinium.com website has provided accurate weather forecast for Montreal's island.